Terminal Aerodrome Forecast
Issued by NWS Charleston, SC

Home | Current Version | Previous Version | Text Only | Print | Product List | Glossary On
Versions: 1 2 3 4 5 6 7 8 9 10 11 12 13 14 15 16 17 18 19 20 21
000
FTUS42 KCHS 210523
TAFCHS
TAF
KCHS 210523Z 2106/2206 25009KT P6SM SCT040 BKN250
     FM211200 32008KT P6SM SCT250
     FM211900 27009KT P6SM FEW250
     FM220000 25004KT P6SM SCT250=

USA.gov is the U.S. government's official web portal to all federal, state and local government web resources and services.